Impacts METAR Board
IDs:

KLAX - Los Angeles Intl, CA, US

Updated at: 2100 UTC 15 Oct 2018
Potential Impact None Slight Moderate High
Time 15/09Z 15/10Z 15/11Z 15/12Z 15/13Z 15/14Z 15/15Z 15/16Z 15/17Z 15/18Z 15/19Z 15/20Z 15/21Z
Temp64 63 61 60 61 60 61 69 75 78 80 82 82
Dewpt60 59 58 57 58 57 57 47 24 15 11 4 3
Altim30.00 30.01 30.00 30.01 30.03 30.05 30.07 30.08 30.07 30.06 30.05 30.04 30.01
VIS10 10 10 10 10 10 8 9 10 10 10 10 10
CIG-- -- -- -- -- -- -- -- -- -- -- -- --
CoverFEWSCTSCTSCTSCTSCTSCTFEWFEWFEWCLRCLRCLR
FltCatVFRVFRVFRVFRVFRVFRVFRVFRVFRVFRVFRVFRVFR
WX--------------------------
WDir00807050005009001010
WSpd3 0 3 3 3 0 0 4 0 7 5 10 13
WGst-- -- -- -- -- -- -- -- -- -- -- 17 18
Raw hourly METARs
KLAX 150853Z VRB03KT 10SM FEW014 FEW200 18/16 A3000 RMK AO2 SLP158 T01780156 51007
KLAX 150953Z 00000KT 10SM FEW014 FEW090 SCT200 17/15 A3001 RMK AO2 SLP160 T01720150
KLAX 151053Z 08003KT 10SM FEW010 FEW090 SCT200 16/14 A3000 RMK AO2 SLP158 T01610144
KLAX 151153Z 07003KT 10SM FEW010 FEW090 SCT200 16/14 A3001 RMK AO2 SLP162 T01560139 10189 20156 53003
KLAX 151253Z 05003KT 10SM FEW010 FEW080 SCT180 16/14 A3003 RMK AO2 SLP168 T01610144
KLAX 151353Z 00000KT 10SM FEW010 FEW085 SCT180 16/14 A3005 RMK AO2 SLP173 T01560139
KLAX 151453Z 00000KT 8SM FEW012 FEW090 SCT180 16/14 A3007 RMK AO2 SLP180 T01610139 53018
KLAX 151553Z 05004KT 9SM FEW014 FEW180 21/08 A3008 RMK AO2 SLP185 T02060083
KLAX 151653Z COR 00000KT 10SM FEW015 FEW180 24/M04 A3007 RMK AO2 SLP182 T02391044
KLAX 151753Z 09007KT 10SM FEW016 FEW180 26/M09 A3006 RMK AO2 SLP179 T02561094 10256 20156 50001
KLAX 151853Z VRB05KT 10SM CLR 27/M12 A3005 RMK AO2 SLP175 T02671117
KLAX 151953Z 01010G17KT 10SM CLR 28/M16 A3004 RMK AO2 SLP170 T02781156
KLAX 152053Z 01013G18KT 10SM CLR 28/M16 A3001 RMK AO2 SLP163 T02781161 58016



Page loaded:  21:05 UTC  |   02:05 PM Pacific  |   03:05 PM Mountain  |   04:05 PM Central  |   05:05 PM Eastern

 

ADVISORIES

FORECASTS

FORECASTS

OBSERVATIONS

USER TOOLS

ABOUT US